createdAt,value
2019-02-12T00:00:14.184Z,0.25
2019-02-12T00:01:13.964Z,0.21
2019-02-12T00:02:13.372Z,0.23
2019-02-12T00:03:13.449Z,0.2
2019-02-12T00:04:15.160Z,0.22
2019-02-12T00:05:13.998Z,0.2
2019-02-12T00:06:14.100Z,0.18
2019-02-12T00:07:13.832Z,0.24
2019-02-12T00:08:13.611Z,0.22
2019-02-12T00:09:13.330Z,0.23
2019-02-12T00:10:13.817Z,0.22
2019-02-12T00:11:13.331Z,0.18
2019-02-12T00:12:13.545Z,0.25
2019-02-12T00:13:13.732Z,0.2
2019-02-12T00:14:14.049Z,0.2
2019-02-12T00:15:13.538Z,0.2
2019-02-12T00:16:13.647Z,0.18
2019-02-12T00:17:14.279Z,0.19
2019-02-12T00:18:13.417Z,0.16
2019-02-12T00:19:13.635Z,0.2
2019-02-12T00:20:13.991Z,0.17
2019-02-12T00:21:13.394Z,0.17
2019-02-12T00:22:13.426Z,0.18
2019-02-12T00:23:13.344Z,0.16
2019-02-12T00:24:15.135Z,0.12
2019-02-12T00:25:14.010Z,0.18
2019-02-12T00:26:14.536Z,0.13
2019-02-12T00:27:13.623Z,0.15
2019-02-12T00:28:14.140Z,0.15
2019-02-12T00:29:13.550Z,0.12
2019-02-12T00:30:13.404Z,0.16
2019-02-12T00:31:13.328Z,0.14
2019-02-12T00:32:13.756Z,0.09
2019-02-12T00:33:13.872Z,0.1
2019-02-12T00:34:13.566Z,0.09
2019-02-12T00:35:13.768Z,0.12
2019-02-12T00:36:13.785Z,0.1
2019-02-12T00:37:13.722Z,0.09
2019-02-12T00:38:13.699Z,0.1
2019-02-12T00:39:13.415Z,0.13
2019-02-12T00:40:13.437Z,0.11
2019-02-12T00:41:13.487Z,0.09
2019-02-12T00:42:13.517Z,0.11
2019-02-12T00:43:13.436Z,0.08
2019-02-12T00:44:13.303Z,0.11
2019-02-12T00:45:13.633Z,0.1
2019-02-12T00:46:13.289Z,0.12
2019-02-12T00:47:13.286Z,0.09
2019-02-12T00:48:13.461Z,0.07
2019-02-12T00:49:13.471Z,0.11
2019-02-12T00:50:13.942Z,0.08
2019-02-12T00:51:18.264Z,0.07
2019-02-12T00:52:13.348Z,0.11
2019-02-12T00:53:13.493Z,0.07
2019-02-12T00:54:13.211Z,0.03
2019-02-12T00:55:15.082Z,0.04
2019-02-12T00:56:13.326Z,-0.01
2019-02-12T00:57:13.525Z,0.02
2019-02-12T00:58:14.656Z,0.01
2019-02-12T00:59:13.732Z,0
2019-02-12T01:00:14.981Z,0
2019-02-12T01:01:13.448Z,0.07
2019-02-12T01:02:13.709Z,-0.02
2019-02-12T01:03:13.460Z,0.04
2019-02-12T01:04:13.592Z,0.01
2019-02-12T01:05:13.877Z,-0.01
2019-02-12T01:06:13.213Z,-0.05
2019-02-12T01:07:13.485Z,0.02
2019-02-12T01:08:13.680Z,0.01
2019-02-12T01:09:13.195Z,-0.01
2019-02-12T01:10:15.111Z,-0.02
2019-02-12T01:11:13.217Z,-0.02
2019-02-12T01:12:14.022Z,-0.02
2019-02-12T01:13:13.304Z,-0.02
2019-02-12T01:14:13.931Z,-0.03
2019-02-12T01:15:13.571Z,-0.01
2019-02-12T01:16:13.526Z,-0.01
2019-02-12T01:17:13.438Z,-0.01
2019-02-12T01:18:13.648Z,-0.04
2019-02-12T01:19:14.265Z,-0.1
2019-02-12T01:20:13.493Z,-0.04
2019-02-12T01:21:14.182Z,-0.04
2019-02-12T01:22:13.244Z,-0.07
2019-02-12T01:23:13.327Z,-0.01
2019-02-12T01:24:13.233Z,-0.02
2019-02-12T01:25:13.494Z,-0.08
2019-02-12T01:26:13.206Z,-0.13
2019-02-12T01:27:13.029Z,-0.13
2019-02-12T01:28:15.081Z,-0.14
2019-02-12T01:29:13.665Z,-0.09
2019-02-12T01:30:13.726Z,-0.06
2019-02-12T01:31:14.258Z,-0.02
2019-02-12T01:32:13.849Z,-0.05
2019-02-12T01:33:13.446Z,-0.06
2019-02-12T01:34:13.537Z,-0.02
2019-02-12T01:35:14.071Z,-0.08
2019-02-12T01:36:14.078Z,-0.16
2019-02-12T01:37:13.568Z,-0.16
2019-02-12T01:38:13.432Z,-0.19
2019-02-12T01:39:15.029Z,-0.22
2019-02-12T01:40:13.212Z,-0.29
2019-02-12T01:41:15.025Z,-0.32
2019-02-12T01:42:13.638Z,-0.26
2019-02-12T01:43:14.016Z,-0.28
2019-02-12T01:44:14.744Z,-0.26
2019-02-12T01:45:13.676Z,-0.3
2019-02-12T01:46:15.015Z,-0.29
2019-02-12T01:47:13.159Z,-0.28
2019-02-12T01:48:13.552Z,-0.27
2019-02-12T01:49:13.547Z,-0.28
2019-02-12T01:50:13.721Z,-0.3
2019-02-12T01:51:13.876Z,-0.33
2019-02-12T01:52:14.489Z,-0.3
2019-02-12T01:53:13.283Z,-0.38
2019-02-12T01:54:13.473Z,-0.38
2019-02-12T01:55:13.315Z,-0.38
2019-02-12T01:56:13.136Z,-0.39
2019-02-12T01:57:13.939Z,-0.42
2019-02-12T01:58:14.083Z,-0.41
2019-02-12T01:59:13.555Z,-0.42
2019-02-12T02:00:14.542Z,-0.38
2019-02-12T02:01:13.746Z,-0.39
2019-02-12T02:02:13.536Z,-0.36
2019-02-12T02:03:13.268Z,-0.37
2019-02-12T02:04:13.194Z,-0.35
2019-02-12T02:05:13.861Z,-0.4
2019-02-12T02:06:13.178Z,-0.42
2019-02-12T02:07:13.464Z,-0.32
2019-02-12T02:08:15.023Z,-0.36
2019-02-12T02:09:13.192Z,-0.32
2019-02-12T02:10:13.336Z,-0.37
2019-02-12T02:11:13.653Z,-0.36
2019-02-12T02:12:13.497Z,-0.36
2019-02-12T02:13:14.309Z,-0.39
2019-02-12T02:14:13.390Z,-0.4
2019-02-12T02:15:13.522Z,-0.41
2019-02-12T02:16:13.290Z,-0.43
2019-02-12T02:17:13.535Z,-0.43
2019-02-12T02:18:13.294Z,-0.45
2019-02-12T02:19:13.321Z,-0.42
2019-02-12T02:20:13.456Z,-0.44
2019-02-12T02:21:13.207Z,-0.42
2019-02-12T02:22:14.289Z,-0.43
2019-02-12T02:23:13.104Z,-0.47
2019-02-12T02:24:13.221Z,-0.47
2019-02-12T02:25:13.373Z,-0.46
2019-02-12T02:26:13.193Z,-0.51
2019-02-12T02:27:13.282Z,-0.49
2019-02-12T02:28:13.389Z,-0.55
2019-02-12T02:29:13.273Z,-0.58
2019-02-12T02:30:13.651Z,-0.61
2019-02-12T02:31:13.424Z,-0.62
2019-02-12T02:32:14.942Z,-0.59
2019-02-12T02:33:13.221Z,-0.6
2019-02-12T02:34:13.441Z,-0.58
2019-02-12T02:35:13.173Z,-0.54
2019-02-12T02:36:13.324Z,-0.62
2019-02-12T02:37:13.241Z,-0.61
2019-02-12T02:38:13.090Z,-0.6
2019-02-12T02:39:13.189Z,-0.58
2019-02-12T02:40:13.249Z,-0.57
2019-02-12T02:41:14.403Z,-0.53
2019-02-12T02:42:13.584Z,-0.49
2019-02-12T02:43:13.490Z,-0.52
2019-02-12T02:44:13.067Z,-0.45
2019-02-12T02:45:13.345Z,-0.41
2019-02-12T02:46:13.063Z,-0.43
2019-02-12T02:47:13.618Z,-0.44
2019-02-12T02:48:13.206Z,-0.49
2019-02-12T02:49:13.735Z,-0.56
2019-02-12T02:50:14.297Z,-0.5
2019-02-12T02:51:13.975Z,-0.51
2019-02-12T02:52:14.921Z,-0.52
2019-02-12T02:53:13.564Z,-0.49
2019-02-12T02:54:13.091Z,-0.47
2019-02-12T02:55:13.278Z,-0.45
2019-02-12T02:56:13.104Z,-0.46
2019-02-12T02:57:13.823Z,-0.46
2019-02-12T02:58:13.071Z,-0.46
2019-02-12T02:59:13.499Z,-0.45
2019-02-12T03:00:13.818Z,-0.48
2019-02-12T03:01:13.146Z,-0.49
2019-02-12T03:02:13.528Z,-0.45
2019-02-12T03:03:13.187Z,-0.45
2019-02-12T03:04:13.325Z,-0.51
2019-02-12T03:05:13.239Z,-0.39
2019-02-12T03:06:13.173Z,-0.45
2019-02-12T03:07:13.570Z,-0.47
2019-02-12T03:08:13.666Z,-0.45
2019-02-12T03:09:13.109Z,-0.38
2019-02-12T03:10:13.684Z,-0.4
2019-02-12T03:11:13.481Z,-0.41
2019-02-12T03:12:13.393Z,-0.37
2019-02-12T03:13:13.282Z,-0.39
2019-02-12T03:14:13.238Z,-0.37
2019-02-12T03:15:13.241Z,-0.38
2019-02-12T03:16:13.422Z,-0.35
2019-02-12T03:17:14.879Z,-0.33
2019-02-12T03:18:13.384Z,-0.36
2019-02-12T03:19:13.166Z,-0.32
2019-02-12T03:20:13.453Z,-0.31
2019-02-12T03:21:13.460Z,-0.32
2019-02-12T03:22:13.343Z,-0.27
2019-02-12T03:23:14.951Z,-0.26
2019-02-12T03:24:13.664Z,-0.24
2019-02-12T03:25:13.011Z,-0.24
2019-02-12T03:26:13.018Z,-0.24
2019-02-12T03:27:12.858Z,-0.25
2019-02-12T03:28:13.380Z,-0.28
2019-02-12T03:29:13.285Z,-0.26
2019-02-12T03:30:13.621Z,-0.23
2019-02-12T03:31:13.318Z,-0.26
2019-02-12T03:32:13.182Z,-0.27
2019-02-12T03:33:13.461Z,-0.25
2019-02-12T03:34:13.370Z,-0.27
2019-02-12T03:35:13.854Z,-0.23
2019-02-12T03:36:13.111Z,-0.2
2019-02-12T03:37:13.092Z,-0.24
2019-02-12T03:38:13.381Z,-0.21
2019-02-12T03:39:13.774Z,-0.24
2019-02-12T03:40:13.085Z,-0.21
2019-02-12T03:41:13.178Z,-0.09
2019-02-12T03:42:13.633Z,-0.15
2019-02-12T03:43:13.018Z,-0.07
2019-02-12T03:44:13.275Z,-0.02
2019-02-12T03:45:13.068Z,-0.1
2019-02-12T03:46:13.304Z,-0.11
2019-02-12T03:47:13.519Z,-0.11
2019-02-12T03:48:13.618Z,-0.08
2019-02-12T03:49:13.308Z,-0.18
2019-02-12T03:50:13.125Z,-0.2
2019-02-12T03:51:13.034Z,-0.16
2019-02-12T03:52:13.504Z,-0.18
2019-02-12T03:53:13.114Z,-0.11
2019-02-12T03:54:13.091Z,-0.15
2019-02-12T03:55:13.404Z,-0.08
2019-02-12T03:56:13.062Z,-0.01
2019-02-12T03:57:13.083Z,-0.09
2019-02-12T03:58:12.986Z,-0.15
2019-02-12T03:59:13.511Z,-0.05
2019-02-12T04:00:13.701Z,0.03
2019-02-12T04:01:13.135Z,0.1
2019-02-12T04:02:13.159Z,0.13
2019-02-12T04:03:13.187Z,0.04
2019-02-12T04:04:12.943Z,-0.01
2019-02-12T04:05:14.796Z,0.08
2019-02-12T04:06:13.853Z,0.09
2019-02-12T04:07:13.545Z,0.09
2019-02-12T04:08:13.139Z,0.1
2019-02-12T04:09:13.889Z,0.1
2019-02-12T04:10:13.135Z,0.13
2019-02-12T04:11:13.052Z,0.04
2019-02-12T04:12:13.184Z,0.05
2019-02-12T04:13:13.174Z,0.04
2019-02-12T04:14:13.024Z,0.1
2019-02-12T04:15:13.000Z,0.13
2019-02-12T04:16:13.299Z,0.12
2019-02-12T04:17:13.049Z,0.04
2019-02-12T04:18:12.977Z,0.02
2019-02-12T04:19:13.044Z,0.02
2019-02-12T04:20:13.010Z,-0.01
2019-02-12T04:21:12.962Z,0.1
2019-02-12T04:22:23.475Z,0.1
2019-02-12T04:23:13.546Z,0.07
2019-02-12T04:24:13.338Z,0.06
2019-02-12T04:25:13.006Z,0.06
2019-02-12T04:26:13.050Z,0.1
2019-02-12T04:27:13.305Z,0.08
2019-02-12T04:28:13.986Z,0.06
2019-02-12T04:29:13.282Z,0.07
2019-02-12T04:30:13.026Z,0.06
2019-02-12T04:31:13.536Z,0.06
2019-02-12T04:32:13.099Z,0
2019-02-12T04:33:14.783Z,0
2019-02-12T04:34:13.138Z,-0.02
2019-02-12T04:35:13.228Z,-0.05
2019-02-12T04:36:13.166Z,-0.06
2019-02-12T04:37:12.996Z,-0.01
2019-02-12T04:38:13.009Z,-0.01
2019-02-12T04:39:12.869Z,-0.03
2019-02-12T04:40:13.291Z,-0.02
2019-02-12T04:41:12.940Z,-0.02
2019-02-12T04:42:12.991Z,-0.02
2019-02-12T04:43:13.470Z,-0.03
2019-02-12T04:44:13.065Z,-0.02
2019-02-12T04:45:13.826Z,0.06
2019-02-12T04:46:13.117Z,0.04
2019-02-12T04:47:13.304Z,0.09
2019-02-12T04:48:13.234Z,0.02
2019-02-12T04:49:13.401Z,-0.01
2019-02-12T04:50:14.053Z,0.03
2019-02-12T04:51:13.314Z,-0.03
2019-02-12T04:52:13.215Z,-0.05
2019-02-12T04:53:14.015Z,-0.02
2019-02-12T04:54:13.362Z,0
2019-02-12T04:55:13.129Z,0.03
2019-02-12T04:56:13.345Z,0.01
2019-02-12T04:57:13.082Z,0
2019-02-12T04:58:13.122Z,-0.03
2019-02-12T04:59:14.750Z,-0.06
2019-02-12T05:00:13.050Z,-0.04
2019-02-12T05:01:13.148Z,-0.02
2019-02-12T05:02:14.716Z,-0.02
2019-02-12T05:03:13.924Z,0.02
2019-02-12T05:04:13.112Z,-0.07
2019-02-12T05:05:13.152Z,-0.1
2019-02-12T05:06:13.238Z,-0.12
2019-02-12T05:07:13.234Z,-0.15
2019-02-12T05:08:14.108Z,-0.16
2019-02-12T05:09:13.371Z,-0.17
2019-02-12T05:10:13.863Z,-0.17
2019-02-12T05:11:12.998Z,-0.18
2019-02-12T05:12:13.076Z,-0.24
2019-02-12T05:13:13.565Z,-0.23
2019-02-12T05:14:14.705Z,-0.24
2019-02-12T05:15:13.013Z,-0.17
2019-02-12T05:16:13.582Z,-0.23
2019-02-12T05:17:13.113Z,-0.21
2019-02-12T05:18:13.347Z,-0.2
2019-02-12T05:19:14.616Z,-0.22
2019-02-12T05:20:13.129Z,-0.2
2019-02-12T05:21:13.519Z,-0.22
2019-02-12T05:22:13.323Z,-0.22
2019-02-12T05:23:13.142Z,-0.21
2019-02-12T05:24:12.844Z,-0.2
2019-02-12T05:25:13.881Z,-0.25
2019-02-12T05:26:13.769Z,-0.21
2019-02-12T05:27:12.888Z,-0.22
2019-02-12T05:28:12.858Z,-0.2
2019-02-12T05:29:13.236Z,-0.22
2019-02-12T05:30:13.258Z,-0.22
2019-02-12T05:31:13.546Z,-0.24
2019-02-12T05:32:13.154Z,-0.21
2019-02-12T05:33:13.498Z,-0.24
2019-02-12T05:34:13.615Z,-0.25
2019-02-12T05:35:13.443Z,-0.3
2019-02-12T05:36:12.927Z,-0.28
2019-02-12T05:37:12.972Z,-0.26
2019-02-12T05:38:12.792Z,-0.25
2019-02-12T05:39:12.861Z,-0.24
2019-02-12T05:40:13.143Z,-0.18
2019-02-12T05:41:13.354Z,-0.11
2019-02-12T05:42:14.677Z,-0.2
2019-02-12T05:43:12.999Z,-0.26
2019-02-12T05:44:13.028Z,-0.2
2019-02-12T05:45:13.025Z,-0.16
2019-02-12T05:46:14.662Z,-0.23
2019-02-12T05:47:13.746Z,-0.3
2019-02-12T05:48:13.021Z,-0.25
2019-02-12T05:49:13.013Z,-0.27
2019-02-12T05:50:13.154Z,-0.25
2019-02-12T05:51:13.224Z,-0.25
2019-02-12T05:52:13.187Z,-0.27
2019-02-12T05:53:13.072Z,-0.26
2019-02-12T05:54:13.013Z,-0.22
2019-02-12T05:55:13.332Z,-0.27
2019-02-12T05:56:13.123Z,-0.31
2019-02-12T05:57:12.803Z,-0.33
2019-02-12T05:58:12.901Z,-0.27
2019-02-12T05:59:13.155Z,-0.28
2019-02-12T06:00:13.093Z,-0.29
2019-02-12T06:01:14.631Z,-0.3
2019-02-12T06:02:13.049Z,-0.26
2019-02-12T06:03:13.038Z,-0.32
2019-02-12T06:04:12.872Z,-0.29
2019-02-12T06:05:13.099Z,-0.32
2019-02-12T06:06:13.102Z,-0.41
2019-02-12T06:07:13.302Z,-0.42
2019-02-12T06:08:13.633Z,-0.4
2019-02-12T06:09:13.123Z,-0.38
2019-02-12T06:10:13.139Z,-0.34
2019-02-12T06:11:13.197Z,-0.37
2019-02-12T06:12:13.392Z,-0.38
2019-02-12T06:13:13.098Z,-0.31
2019-02-12T06:14:13.064Z,-0.35
2019-02-12T06:15:13.370Z,-0.39
2019-02-12T06:16:13.085Z,-0.36
2019-02-12T06:17:13.148Z,-0.34
2019-02-12T06:18:13.491Z,-0.32
2019-02-12T06:19:15.137Z,-0.39
2019-02-12T06:20:13.092Z,-0.33
2019-02-12T06:21:13.094Z,-0.37
2019-02-12T06:22:13.191Z,-0.35
2019-02-12T06:23:13.056Z,-0.29
2019-02-12T06:24:13.174Z,-0.28
2019-02-12T06:25:13.745Z,-0.32
2019-02-12T06:26:13.486Z,-0.33
2019-02-12T06:27:12.827Z,-0.33
2019-02-12T06:28:13.081Z,-0.35
2019-02-12T06:29:14.589Z,-0.36
2019-02-12T06:30:13.251Z,-0.4
2019-02-12T06:31:12.838Z,-0.38
2019-02-12T06:32:13.173Z,-0.42
2019-02-12T06:33:13.059Z,-0.4
2019-02-12T06:34:13.083Z,-0.43
2019-02-12T06:35:13.089Z,-0.41
2019-02-12T06:36:12.943Z,-0.43
2019-02-12T06:37:12.882Z,-0.42
2019-02-12T06:38:12.761Z,-0.39
2019-02-12T06:39:13.121Z,-0.45
2019-02-12T06:40:13.067Z,-0.4
2019-02-12T06:41:12.865Z,-0.4
2019-02-12T06:42:12.830Z,-0.43
2019-02-12T06:43:14.573Z,-0.45
2019-02-12T06:44:13.054Z,-0.46
2019-02-12T06:45:13.076Z,-0.46
2019-02-12T06:46:14.600Z,-0.43
2019-02-12T06:47:13.171Z,-0.51
2019-02-12T06:48:13.062Z,-0.51
2019-02-12T06:49:13.689Z,-0.53
2019-02-12T06:50:13.100Z,-0.54
2019-02-12T06:51:13.550Z,-0.51
2019-02-12T06:52:13.164Z,-0.42
2019-02-12T06:53:13.313Z,-0.42
2019-02-12T06:54:13.104Z,-0.44
2019-02-12T06:55:12.714Z,-0.44
2019-02-12T06:56:13.022Z,-0.38
2019-02-12T06:57:13.156Z,-0.39
2019-02-12T06:58:13.139Z,-0.34
2019-02-12T06:59:14.553Z,-0.4
2019-02-12T07:00:13.243Z,-0.37
2019-02-12T07:01:13.058Z,-0.38
2019-02-12T07:02:13.357Z,-0.35
2019-02-12T07:03:13.595Z,-0.23
2019-02-12T07:04:12.905Z,-0.31
2019-02-12T07:05:12.808Z,-0.36
2019-02-12T07:06:13.170Z,-0.32
2019-02-12T07:07:13.087Z,-0.27
2019-02-12T07:08:12.727Z,-0.29
2019-02-12T07:09:12.864Z,-0.26
2019-02-12T07:10:13.048Z,-0.23
2019-02-12T07:11:12.804Z,-0.33
2019-02-12T07:12:14.546Z,-0.3
2019-02-12T07:13:13.123Z,-0.33
2019-02-12T07:14:13.036Z,-0.23
2019-02-12T07:15:13.144Z,-0.29
2019-02-12T07:16:13.389Z,-0.32
2019-02-12T07:17:12.695Z,-0.31
2019-02-12T07:18:13.063Z,-0.22
2019-02-12T07:19:12.766Z,-0.14
2019-02-12T07:20:12.890Z,-0.13
2019-02-12T07:21:13.137Z,-0.18
2019-02-12T07:22:12.733Z,-0.14
2019-02-12T07:23:21.790Z,-0.16
2019-02-12T07:24:13.102Z,-0.19
2019-02-12T07:25:13.588Z,-0.24
2019-02-12T07:26:13.015Z,-0.23
2019-02-12T07:27:13.144Z,-0.26
2019-02-12T07:28:12.698Z,-0.28
2019-02-12T07:29:12.741Z,-0.25
2019-02-12T07:30:12.688Z,-0.23
2019-02-12T07:31:13.044Z,-0.23
2019-02-12T07:32:13.599Z,-0.14
2019-02-12T07:33:13.806Z,-0.2
2019-02-12T07:34:12.795Z,-0.23
2019-02-12T07:35:14.503Z,-0.19
2019-02-12T07:36:12.977Z,-0.22
2019-02-12T07:37:12.702Z,-0.19
2019-02-12T07:38:13.125Z,-0.12
2019-02-12T07:39:13.134Z,-0.14
2019-02-12T07:40:13.214Z,-0.15
2019-02-12T07:41:20.786Z,-0.12
2019-02-12T07:42:12.707Z,-0.13
2019-02-12T07:43:12.647Z,-0.15
2019-02-12T07:44:14.581Z,-0.14
2019-02-12T07:45:12.819Z,-0.14
2019-02-12T07:46:12.748Z,-0.16
2019-02-12T07:47:13.878Z,-0.2
2019-02-12T07:48:13.347Z,-0.19
2019-02-12T07:49:12.697Z,-0.07
2019-02-12T07:50:12.968Z,-0.14
2019-02-12T07:51:13.085Z,-0.15
2019-02-12T07:52:12.621Z,-0.11
2019-02-12T07:53:13.032Z,-0.09
2019-02-12T07:54:12.600Z,-0.09
2019-02-12T07:55:12.672Z,-0.13
2019-02-12T07:56:13.036Z,-0.15
2019-02-12T07:57:12.592Z,-0.16
2019-02-12T07:58:13.131Z,-0.12
2019-02-12T07:59:12.649Z,-0.05
2019-02-12T08:00:12.963Z,-0.08
2019-02-12T08:01:12.584Z,-0.08
2019-02-12T08:02:13.260Z,-0.07
2019-02-12T08:03:14.459Z,-0.09
2019-02-12T08:04:13.106Z,-0.08
2019-02-12T08:05:12.655Z,-0.05
2019-02-12T08:06:13.071Z,-0.08
2019-02-12T08:07:13.197Z,-0.09
2019-02-12T08:08:12.775Z,-0.04
2019-02-12T08:09:13.081Z,-0.03
2019-02-12T08:10:12.727Z,-0.02
2019-02-12T08:11:13.001Z,-0.02
2019-02-12T08:12:12.674Z,0.01
2019-02-12T08:13:13.153Z,-0.03
2019-02-12T08:14:12.924Z,0
2019-02-12T08:15:12.765Z,-0.01
2019-02-12T08:16:12.850Z,0
2019-02-12T08:17:13.139Z,0
2019-02-12T08:18:12.718Z,0.02
2019-02-12T08:19:13.211Z,-0.02
2019-02-12T08:20:12.537Z,0.02
2019-02-12T08:21:12.763Z,0
2019-02-12T08:22:14.484Z,0.08
2019-02-12T08:23:12.907Z,0.04
2019-02-12T08:24:13.227Z,-0.01
2019-02-12T08:25:13.331Z,0.03
2019-02-12T08:26:12.798Z,0.08
2019-02-12T08:27:13.016Z,0.16
2019-02-12T08:28:12.625Z,0.17
2019-02-12T08:29:13.153Z,0.23
2019-02-12T08:30:12.743Z,0.24
2019-02-12T08:31:12.840Z,0.19
2019-02-12T08:32:12.638Z,0.21
2019-02-12T08:33:12.854Z,0.21
2019-02-12T08:34:12.962Z,0.21
2019-02-12T08:35:12.843Z,0.2
2019-02-12T08:36:12.613Z,0.19
2019-02-12T08:37:14.389Z,0.21
2019-02-12T08:38:12.879Z,0.2
2019-02-12T08:39:13.704Z,0.17
2019-02-12T08:40:13.341Z,0.18
2019-02-12T08:41:12.789Z,0.22
2019-02-12T08:42:12.672Z,0.28
2019-02-12T08:43:14.381Z,0.32
2019-02-12T08:44:12.908Z,0.23
2019-02-12T08:45:12.376Z,0.26
2019-02-12T08:46:12.986Z,0.23
2019-02-12T08:47:12.833Z,0.26
2019-02-12T08:48:13.057Z,0.31
2019-02-12T08:49:12.621Z,0.35
2019-02-12T08:50:13.164Z,0.34
2019-02-12T08:51:13.079Z,0.32
2019-02-12T08:52:13.160Z,0.37
2019-02-12T08:53:12.648Z,0.31
2019-02-12T08:54:12.663Z,0.35
2019-02-12T08:55:12.533Z,0.4
2019-02-12T08:56:14.582Z,0.37
2019-02-12T08:57:12.519Z,0.38
2019-02-12T08:58:12.739Z,0.37
2019-02-12T08:59:12.538Z,0.4
2019-02-12T09:00:13.123Z,0.41
2019-02-12T09:01:13.323Z,0.42
2019-02-12T09:02:13.351Z,0.43
2019-02-12T09:03:12.937Z,0.42
2019-02-12T09:04:12.539Z,0.42
2019-02-12T09:05:13.064Z,0.42
2019-02-12T09:06:12.718Z,0.43
2019-02-12T09:07:12.496Z,0.43
2019-02-12T09:08:12.817Z,0.46
2019-02-12T09:09:12.892Z,0.47
2019-02-12T09:10:12.785Z,0.5
2019-02-12T09:11:12.686Z,0.5
2019-02-12T09:12:12.511Z,0.48
2019-02-12T09:13:13.425Z,0.44
2019-02-12T09:14:12.815Z,0.46
2019-02-12T09:15:13.742Z,0.42
2019-02-12T09:16:12.499Z,0.42
2019-02-12T09:17:12.586Z,0.45
2019-02-12T09:18:12.574Z,0.38
2019-02-12T09:19:12.609Z,0.43
2019-02-12T09:20:12.869Z,0.43
2019-02-12T09:21:12.849Z,0.43
2019-02-12T09:22:12.760Z,0.43
2019-02-12T09:23:12.761Z,0.46
2019-02-12T09:24:14.688Z,0.43
2019-02-12T09:25:13.387Z,0.42
2019-02-12T09:26:12.778Z,0.45
2019-02-12T09:27:14.338Z,0.5
2019-02-12T09:28:12.695Z,0.55
2019-02-12T09:29:12.606Z,0.61
2019-02-12T09:30:12.810Z,0.63
2019-02-12T09:31:12.743Z,0.58
2019-02-12T09:32:12.846Z,0.54
2019-02-12T09:33:14.335Z,0.56
2019-02-12T09:34:12.450Z,0.56
2019-02-12T09:35:12.842Z,0.53
2019-02-12T09:36:12.922Z,0.55
2019-02-12T09:37:12.963Z,0.57
2019-02-12T09:38:12.767Z,0.61
2019-02-12T09:39:12.965Z,0.6
2019-02-12T09:40:19.652Z,0.58
2019-02-12T09:41:12.892Z,0.55
2019-02-12T09:42:12.894Z,0.49
2019-02-12T09:43:13.320Z,0.51
2019-02-12T09:44:13.026Z,0.58
2019-02-12T09:45:13.140Z,0.54
2019-02-12T09:46:12.479Z,0.57
2019-02-12T09:47:13.039Z,0.62
2019-02-12T09:48:12.584Z,0.65
2019-02-12T09:49:12.949Z,0.59
2019-02-12T09:50:12.664Z,0.56
2019-02-12T09:51:13.150Z,0.61
2019-02-12T09:52:13.464Z,0.52
2019-02-12T09:53:13.902Z,0.58
2019-02-12T09:54:12.784Z,0.58
2019-02-12T09:55:12.830Z,0.6
2019-02-12T09:56:12.787Z,0.55
2019-02-12T09:57:13.002Z,0.6
2019-02-12T09:58:13.045Z,0.56
2019-02-12T09:59:12.699Z,0.63
2019-02-12T10:00:13.119Z,0.69
2019-02-12T10:01:12.815Z,0.75
2019-02-12T10:02:13.707Z,0.84
2019-02-12T10:03:12.740Z,0.94
2019-02-12T10:04:12.841Z,0.89
2019-02-12T10:05:12.412Z,0.83
2019-02-12T10:06:24.502Z,0.91
2019-02-12T10:07:13.087Z,0.91
2019-02-12T10:08:12.609Z,0.91
2019-02-12T10:09:12.881Z,0.88
2019-02-12T10:10:12.547Z,0.91
2019-02-12T10:11:12.468Z,0.92
2019-02-12T10:12:12.564Z,0.94
2019-02-12T10:13:12.793Z,0.91
2019-02-12T10:14:12.723Z,0.95
2019-02-12T10:15:13.145Z,0.96
2019-02-12T10:16:13.020Z,1.02
2019-02-12T10:17:12.918Z,0.96
2019-02-12T10:18:13.041Z,0.96
2019-02-12T10:19:12.839Z,0.95
2019-02-12T10:20:13.170Z,1.01
2019-02-12T10:21:12.421Z,0.96
2019-02-12T10:22:12.714Z,0.96
2019-02-12T10:23:12.967Z,1
2019-02-12T10:25:13.313Z,0.99
2019-02-12T10:26:12.577Z,1.04
2019-02-12T10:27:12.778Z,1.05
2019-02-12T10:28:13.252Z,1.03
2019-02-12T10:29:13.020Z,1.13
2019-02-12T10:30:12.582Z,1.17
2019-02-12T10:31:12.798Z,1.16
2019-02-12T10:32:12.723Z,1.13
2019-02-12T10:33:12.382Z,1.14
2019-02-12T10:34:12.725Z,1.15
2019-02-12T10:35:12.553Z,1.07
2019-02-12T10:36:12.797Z,1.08
2019-02-12T10:37:13.151Z,1.14
2019-02-12T10:39:12.863Z,1.23
2019-02-12T10:40:14.041Z,1.29
2019-02-12T10:41:12.691Z,1.31
2019-02-12T10:42:12.559Z,1.24
2019-02-12T10:43:12.510Z,1.07
2019-02-12T10:44:12.999Z,1.06
2019-02-12T10:45:13.119Z,1.01
2019-02-12T10:46:14.223Z,1.15
2019-02-12T10:47:12.626Z,1.07
2019-02-12T10:48:12.530Z,1.22
2019-02-12T10:49:12.346Z,1.26
2019-02-12T10:50:12.738Z,1.23
2019-02-12T10:51:12.529Z,1.26
2019-02-12T10:52:12.851Z,1.36
2019-02-12T10:53:13.000Z,1.36
2019-02-12T10:54:13.952Z,1.28
2019-02-12T10:55:13.159Z,1.26
2019-02-12T10:56:14.202Z,1.3
2019-02-12T10:57:13.424Z,1.25
2019-02-12T10:58:12.465Z,1.25
2019-02-12T10:59:14.689Z,1.22
2019-02-12T11:00:13.605Z,1.22
2019-02-12T11:01:12.373Z,1.28
2019-02-12T11:02:12.606Z,1.27
2019-02-12T11:03:12.604Z,1.29
2019-02-12T11:04:12.705Z,1.09
2019-02-12T11:05:12.417Z,1.12
2019-02-12T11:06:12.401Z,1.04
2019-02-12T11:07:12.427Z,1.15
2019-02-12T11:08:13.777Z,0.98
2019-02-12T11:09:12.554Z,0.99
2019-02-12T11:10:12.879Z,1
2019-02-12T11:11:15.609Z,1.05
2019-02-12T11:12:12.693Z,1.2
2019-02-12T11:13:12.482Z,0.98
2019-02-12T11:14:12.721Z,1.01
2019-02-12T11:15:12.602Z,1.13
2019-02-12T11:16:12.390Z,1.15
2019-02-12T11:17:13.365Z,1.23
2019-02-12T11:18:14.140Z,1.22
2019-02-12T11:19:12.714Z,1.2
2019-02-12T11:20:12.828Z,1.25
2019-02-12T11:21:12.676Z,1.29
2019-02-12T11:22:14.173Z,1.28
2019-02-12T11:23:12.339Z,1.2
2019-02-12T11:24:12.323Z,1.18
2019-02-12T11:25:12.546Z,1.11
2019-02-12T11:26:13.012Z,1.05
2019-02-12T11:27:13.614Z,0.78
2019-02-12T11:28:12.567Z,0.65
2019-02-12T11:29:12.783Z,0.78
2019-02-12T11:30:12.336Z,0.93
2019-02-12T11:31:12.701Z,0.91
2019-02-12T11:32:12.806Z,0.84
2019-02-12T11:33:12.908Z,0.87
2019-02-12T11:34:14.140Z,0.87
2019-02-12T11:35:12.923Z,0.86
2019-02-12T11:36:12.322Z,0.88
2019-02-12T11:37:12.464Z,0.87
2019-02-12T11:38:12.622Z,0.84
2019-02-12T11:39:12.311Z,0.92
2019-02-12T11:40:13.733Z,0.93
2019-02-12T11:41:12.325Z,0.97
2019-02-12T11:42:12.569Z,0.88
2019-02-12T11:43:12.572Z,0.76
2019-02-12T11:44:13.093Z,0.73
2019-02-12T11:45:12.688Z,0.27
2019-02-12T11:46:12.603Z,0.1
2019-02-12T11:47:12.606Z,0.31
2019-02-12T11:48:12.382Z,0.18
2019-02-12T11:49:12.260Z,0.13
2019-02-12T11:50:12.512Z,-0.06
2019-02-12T11:51:12.474Z,-0.03
2019-02-12T11:52:12.330Z,-0.18
2019-02-12T11:53:12.723Z,-0.18
2019-02-12T11:54:12.338Z,-0.18
2019-02-12T11:55:12.750Z,-0.38
2019-02-12T11:56:12.347Z,-0.17
2019-02-12T11:57:12.773Z,-0.31
2019-02-12T11:58:12.565Z,-0.36
2019-02-12T11:59:12.387Z,-0.37
2019-02-12T12:00:12.454Z,-0.19
2019-02-12T12:01:12.600Z,-0.16
2019-02-12T12:02:14.089Z,-0.39
2019-02-12T12:03:12.585Z,-0.04
2019-02-12T12:04:12.608Z,-0.14
2019-02-12T12:05:12.608Z,-0.22
2019-02-12T12:06:12.819Z,-0.02
2019-02-12T12:07:12.356Z,-0.04
2019-02-12T12:08:12.729Z,-0.07
2019-02-12T12:09:12.251Z,-0.21
2019-02-12T12:10:12.388Z,-0.13
2019-02-12T12:11:12.211Z,-0.02
2019-02-12T12:12:12.386Z,-0.2
2019-02-12T12:13:12.319Z,-0.1
2019-02-12T12:14:12.230Z,-0.05
2019-02-12T12:15:12.246Z,-0.2
2019-02-12T12:16:12.586Z,-0.21
2019-02-12T12:17:12.198Z,-0.33
2019-02-12T12:18:12.259Z,-0.16
2019-02-12T12:19:14.052Z,-0.12
2019-02-12T12:20:12.263Z,-0.15
2019-02-12T12:21:12.336Z,-0.14
2019-02-12T12:22:12.261Z,-0.14
2019-02-12T12:23:12.230Z,-0.07
2019-02-12T12:24:12.303Z,-0.23
2019-02-12T12:25:12.557Z,-0.33
2019-02-12T12:26:12.344Z,-0.19
2019-02-12T12:27:12.673Z,-0.22
2019-02-12T12:28:12.303Z,-0.26
2019-02-12T12:29:12.580Z,-0.19
2019-02-12T12:30:12.185Z,-0.3
2019-02-12T12:31:12.701Z,-0.46
2019-02-12T12:32:12.362Z,-0.18
2019-02-12T12:33:12.604Z,-0.22
2019-02-12T12:34:12.203Z,-0.15
2019-02-12T12:35:12.522Z,-0.44
2019-02-12T12:36:12.399Z,-0.27
2019-02-12T12:37:12.201Z,-0.19
2019-02-12T12:38:12.300Z,-0.93
2019-02-12T12:39:12.566Z,-0.59
2019-02-12T12:40:12.228Z,-0.57
2019-02-12T12:41:12.763Z,-0.44
2019-02-12T12:42:12.321Z,-0.57
2019-02-12T12:43:13.368Z,-0.46
2019-02-12T12:44:12.371Z,-0.38
2019-02-12T12:45:12.209Z,-0.25
2019-02-12T12:46:12.706Z,-0.26
2019-02-12T12:47:13.363Z,-0.18
2019-02-12T12:48:12.305Z,-0.22
2019-02-12T12:49:12.267Z,-0.36
2019-02-12T12:50:12.323Z,-0.12
2019-02-12T12:51:12.264Z,0.05
2019-02-12T12:52:12.256Z,-0.14
2019-02-12T12:53:12.246Z,-0.07
2019-02-12T12:54:12.184Z,-0.12
2019-02-12T12:55:12.194Z,-0.1
2019-02-12T12:56:12.204Z,-0.05
2019-02-12T12:57:13.194Z,-0.15
2019-02-12T12:58:14.032Z,-0.06
2019-02-12T12:59:12.771Z,0.01
2019-02-12T13:00:12.697Z,0.04
2019-02-12T13:01:12.193Z,-0.04
2019-02-12T13:02:13.999Z,-0.02
2019-02-12T13:03:13.682Z,0.18
2019-02-12T13:04:13.397Z,0.21
2019-02-12T13:05:12.606Z,0.14
2019-02-12T13:06:12.119Z,0.03
2019-02-12T13:07:12.492Z,-0.09
2019-02-12T13:08:12.724Z,0.03